Time;durP1;ratioP1;P1;durP2;ratioP2;P2;SDS_P1;SDS_P2;PMS_P1;PMS_P2;Temp;Humidity;BMP_temperature;BMP_pressure;BME280_temperature;BME280_humidity;BME280_pressure;Samples;Min_cycle;Max_cycle;Signal;HPM_P1;HPM_P2
2022/05/04 00:00:41;;;;;;;59.30;34.00;;;;;;;9.03;64.05;98658.34;108425;1271;22534;-73
2022/05/04 00:03:08;;;;;;;54.60;30.70;;;;;;;9.07;63.91;98658.47;108438;1271;23357;-70
2022/05/04 00:05:35;;;;;;;59.20;32.90;;;;;;;9.12;63.43;98658.02;108441;1271;22839;-70
2022/05/04 00:08:02;;;;;;;50.60;28.80;;;;;;;9.15;63.58;98660.06;108458;1271;22590;-70
2022/05/04 00:10:34;;;;;;;42.10;25.30;;;;;;;9.21;64.30;98663.40;108424;1271;22531;-70
2022/05/04 00:13:01;;;;;;;42.70;25.80;;;;;;;9.24;64.44;98662.48;108443;1271;25426;-70
2022/05/04 00:15:29;;;;;;;35.50;23.50;;;;;;;9.25;64.77;98662.64;108411;1271;22534;-75
2022/05/04 00:17:56;;;;;;;38.50;23.40;;;;;;;9.25;64.85;98662.93;108456;1271;25501;-70
2022/05/04 00:20:23;;;;;;;36.10;23.10;;;;;;;9.26;64.81;98666.02;108434;1271;22668;-70
2022/05/04 00:22:50;;;;;;;34.30;22.20;;;;;;;9.26;64.40;98666.20;108344;1271;22549;-70
2022/05/04 00:25:17;;;;;;;33.50;20.10;;;;;;;9.26;64.13;98666.39;108341;1271;22651;-70
2022/05/04 00:27:44;;;;;;;30.90;20.40;;;;;;;9.24;64.27;98669.98;108341;1271;27026;-70
2022/05/04 00:30:12;;;;;;;32.90;20.50;;;;;;;9.21;63.97;98669.49;108365;1271;22667;-70
2022/05/04 00:32:39;;;;;;;27.30;17.80;;;;;;;9.20;64.17;98673.90;108329;1271;22703;-69
2022/05/04 00:35:06;;;;;;;29.30;17.30;;;;;;;9.23;64.14;98674.52;108333;1271;22622;-73
2022/05/04 00:37:33;;;;;;;29.60;18.10;;;;;;;9.25;64.87;98675.48;108291;1271;22523;-74
2022/05/04 00:40:00;;;;;;;31.10;19.70;;;;;;;9.25;65.41;98678.63;108326;1271;22544;-71
2022/05/04 00:42:27;;;;;;;33.00;21.10;;;;;;;9.23;65.30;98678.02;108344;1271;22604;-70
2022/05/04 00:44:54;;;;;;;35.30;21.80;;;;;;;9.22;65.46;98679.83;108348;1271;23976;-71
2022/05/04 00:47:21;;;;;;;33.30;21.10;;;;;;;9.21;64.91;98682.83;108344;1271;22525;-71
2022/05/04 00:49:49;;;;;;;37.30;22.50;;;;;;;9.20;64.67;98683.94;108343;1271;22570;-72
2022/05/04 00:52:17;;;;;;;37.40;23.60;;;;;;;9.20;64.82;98686.71;108258;1272;22537;-72
2022/05/04 00:54:48;;;;;;;36.60;22.60;;;;;;;9.20;64.80;98687.27;108350;1271;22528;-76
2022/05/04 00:58:54;;;;;;;33.60;21.30;;;;;;;9.20;64.81;98689.69;108349;1271;22540;-70
2022/05/04 01:00:04;;;;;;;32.20;19.10;;;;;;;9.22;65.02;98692.14;108323;1271;23042;-73
2022/05/04 01:02:31;;;;;;;33.00;20.60;;;;;;;9.23;65.77;98690.52;108373;1271;22531;-70
2022/05/04 01:04:58;;;;;;;43.70;22.10;;;;;;;9.21;65.71;98689.48;108372;1271;22687;-70
2022/05/04 01:07:26;;;;;;;39.90;23.20;;;;;;;9.20;65.79;98692.33;108346;1271;22537;-71
2022/05/04 01:09:53;;;;;;;40.60;24.80;;;;;;;9.18;65.54;98693.09;108341;1271;22544;-71
2022/05/04 01:12:23;;;;;;;42.30;25.50;;;;;;;9.16;65.43;98698.25;108360;1271;22636;-70
2022/05/04 01:14:50;;;;;;;44.30;28.20;;;;;;;9.15;65.13;98699.36;108311;1271;22571;-72
2022/05/04 01:17:17;;;;;;;35.80;23.10;;;;;;;9.13;65.37;98697.35;108310;1271;22528;-73
2022/05/04 01:19:44;;;;;;;28.50;19.00;;;;;;;9.16;65.44;98699.66;108354;1271;22639;-70
2022/05/04 01:22:11;;;;;;;32.80;19.10;;;;;;;9.16;66.03;98700.15;108369;1271;22539;-70
2022/05/04 01:24:39;;;;;;;28.40;19.10;;;;;;;9.15;66.38;98701.63;108364;1271;25289;-72
2022/05/04 01:27:12;;;;;;;32.10;20.40;;;;;;;9.11;66.36;98704.44;108351;1271;22656;-70
2022/05/04 01:29:39;;;;;;;32.60;21.30;;;;;;;9.09;65.99;98705.46;108378;1271;24355;-73
2022/05/04 01:32:07;;;;;;;31.20;20.40;;;;;;;9.07;65.95;98706.05;108380;1271;23104;-70
2022/05/04 01:34:34;;;;;;;31.50;19.70;;;;;;;9.06;66.15;98710.84;108722;1271;23964;-70
2022/05/04 01:37:02;;;;;;;29.00;19.70;;;;;;;9.04;66.11;98706.55;108359;1271;22550;-71
2022/05/04 01:39:29;;;;;;;31.20;18.70;;;;;;;9.06;66.48;98707.34;108347;1271;23278;-79
2022/05/04 01:44:55;;;;;;;35.40;19.60;;;;;;;9.16;67.04;98707.48;108219;1271;23563;-72
2022/05/04 01:47:22;;;;;;;56.00;32.60;;;;;;;9.17;67.07;98708.11;108331;1271;22537;-70
2022/05/04 01:49:49;;;;;;;44.40;26.90;;;;;;;9.18;66.90;98709.80;108370;1271;25435;-71
2022/05/04 01:52:16;;;;;;;44.30;25.90;;;;;;;9.18;66.73;98703.88;108322;1271;22548;-71
2022/05/04 01:54:43;;;;;;;50.00;27.80;;;;;;;9.19;66.64;98704.50;108348;1271;22544;-71
2022/05/04 01:57:10;;;;;;;46.80;27.10;;;;;;;9.19;66.42;98698.28;108325;1271;22532;-71
2022/05/04 01:59:37;;;;;;;38.60;22.80;;;;;;;9.16;65.95;98700.31;108336;1271;22531;-71
2022/05/04 02:02:07;;;;;;;31.80;19.30;;;;;;;9.14;66.17;98702.53;108343;1271;22522;-71
2022/05/04 02:04:36;;;;;;;27.10;17.00;;;;;;;9.13;66.55;98705.36;108318;1271;22555;-70
2022/05/04 02:07:03;;;;;;;26.50;18.00;;;;;;;9.10;67.11;98704.16;108334;1271;22694;-71
2022/05/04 02:09:31;;;;;;;27.10;18.30;;;;;;;9.06;67.49;98701.98;108421;1271;22655;-71
2022/05/04 02:11:57;;;;;;;32.60;21.80;;;;;;;9.02;67.44;98708.29;108367;1271;22694;-70
2022/05/04 02:14:25;;;;;;;36.60;22.70;;;;;;;8.98;66.94;98703.97;108363;1271;22542;-70
2022/05/04 02:16:52;;;;;;;36.80;22.30;;;;;;;8.94;66.84;98706.15;108342;1271;22669;-70
2022/05/04 02:19:19;;;;;;;31.60;20.10;;;;;;;8.89;67.67;98707.66;108363;1271;22519;-75
2022/05/04 02:21:46;;;;;;;25.50;17.90;;;;;;;8.85;67.27;98704.92;108394;1271;24289;-70
2022/05/04 02:24:13;;;;;;;24.90;15.80;;;;;;;8.86;67.11;98706.55;108401;1271;22673;-70
2022/05/04 02:26:40;;;;;;;26.50;15.90;;;;;;;8.85;68.29;98705.77;108440;1271;22709;-70
2022/05/04 02:29:06;;;;;;;30.70;19.30;;;;;;;8.82;68.88;98708.06;108398;1271;22613;-70
2022/05/04 02:31:33;;;;;;;27.50;18.70;;;;;;;8.76;68.55;98706.52;108433;1271;23604;-73
2022/05/04 02:34:00;;;;;;;31.40;18.80;;;;;;;8.71;68.44;98709.17;108435;1271;25283;-70
2022/05/04 02:39:13;;;;;;;27.80;18.40;;;;;;;8.64;67.92;98713.40;108446;1270;22749;-70
2022/05/04 02:41:40;;;;;;;27.00;16.90;;;;;;;8.60;68.04;98715.33;108370;1271;25267;-70
2022/05/04 02:44:07;;;;;;;24.40;16.70;;;;;;;8.61;67.71;98715.64;108372;1271;22562;-70
2022/05/04 02:46:34;;;;;;;27.10;18.00;;;;;;;8.59;67.97;98714.70;108395;1271;22525;-71
2022/05/04 02:49:01;;;;;;;29.60;19.40;;;;;;;8.55;68.01;98715.62;108350;1271;22560;-72
2022/05/04 02:51:28;;;;;;;25.60;17.70;;;;;;;8.50;67.97;98722.19;108398;1271;22675;-70
2022/05/04 02:53:54;;;;;;;31.50;18.60;;;;;;;8.41;68.05;98720.57;107913;1271;674530;-71
2022/05/04 02:56:21;;;;;;;29.90;20.10;;;;;;;8.36;67.93;98722.94;108414;1271;22542;-70
2022/05/04 02:58:53;;;;;;;32.40;22.70;;;;;;;8.32;67.86;98722.46;108390;1271;22547;-69
2022/05/04 03:04:07;;;;;;;28.50;18.40;;;;;;;8.28;68.31;98726.98;108399;1271;22560;-70
2022/05/04 03:06:39;;;;;;;26.50;18.30;;;;;;;8.23;68.48;98730.22;108464;1271;26197;-73
2022/05/04 03:09:08;;;;;;;24.90;18.50;;;;;;;8.17;68.47;98726.54;108406;1271;23961;-71
2022/05/04 03:11:54;;;;;;;28.30;18.30;;;;;;;8.13;68.33;98726.22;108430;1271;23326;-70
2022/05/04 03:14:26;;;;;;;30.20;18.30;;;;;;;8.11;68.42;98721.87;108391;1271;22566;-69
2022/05/04 03:16:55;;;;;;;28.10;18.50;;;;;;;8.12;68.06;98723.22;108415;1271;22544;-74
2022/05/04 03:19:23;;;;;;;30.70;18.50;;;;;;;8.16;68.23;98722.06;108351;1271;25388;-70
2022/05/04 03:21:51;;;;;;;32.50;21.20;;;;;;;8.21;68.99;98730.02;108377;1271;22528;-70
2022/05/04 03:24:19;;;;;;;46.40;30.00;;;;;;;8.22;69.11;98729.41;108511;1271;22529;-71
2022/05/04 03:26:46;;;;;;;56.00;34.20;;;;;;;8.23;69.40;98737.30;108430;1271;24446;-71
2022/05/04 03:29:13;;;;;;;58.40;34.30;;;;;;;8.24;68.92;98737.56;108376;1271;22540;-70
2022/05/04 03:31:40;;;;;;;56.80;32.60;;;;;;;8.27;68.93;98740.20;108431;1271;23234;-71
2022/05/04 03:34:07;;;;;;;50.30;31.50;;;;;;;8.30;68.56;98742.51;108457;1271;22531;-71
2022/05/04 03:36:38;;;;;;;43.70;27.70;;;;;;;8.33;68.58;98747.23;108465;1271;22640;-71
2022/05/04 03:39:06;;;;;;;34.50;21.90;;;;;;;8.41;68.67;98749.77;108496;1271;22569;-72
2022/05/04 03:41:33;;;;;;;34.20;20.80;;;;;;;8.47;69.07;98751.84;108436;1271;22547;-73
2022/05/04 03:44:01;;;;;;;35.90;21.10;;;;;;;8.54;69.40;98756.15;108464;1271;25344;-76
2022/05/04 03:46:40;;;;;;;37.10;24.20;;;;;;;8.58;69.23;98754.52;108546;1271;22532;-72
2022/05/04 03:49:08;;;;;;;43.70;26.50;;;;;;;8.64;69.21;98752.98;108486;1271;22572;-73
2022/05/04 03:51:35;;;;;;;44.50;26.70;;;;;;;8.71;68.90;98748.10;108441;1271;22766;-73
2022/05/04 03:54:03;;;;;;;47.00;28.60;;;;;;;8.77;68.73;98747.56;108423;1271;22541;-74
2022/05/04 03:56:30;;;;;;;48.10;29.60;;;;;;;8.85;68.55;98747.29;108435;1271;24353;-75
2022/05/04 03:58:57;;;;;;;39.00;24.90;;;;;;;8.93;68.24;98748.56;108425;1271;23462;-73
2022/05/04 04:01:24;;;;;;;34.40;21.10;;;;;;;9.02;68.92;98747.51;108480;1271;23282;-74
2022/05/04 04:03:51;;;;;;;34.70;21.80;;;;;;;9.10;68.94;98748.10;108442;1271;22522;-71
2022/05/04 04:06:18;;;;;;;43.50;26.70;;;;;;;9.17;69.73;98749.78;108430;1271;22543;-71
2022/05/04 04:08:45;;;;;;;42.10;25.20;;;;;;;9.22;69.54;98749.83;108449;1271;22534;-71
2022/05/04 04:11:12;;;;;;;44.00;28.20;;;;;;;9.29;69.08;98747.73;108470;1271;22525;-71
2022/05/04 04:13:39;;;;;;;45.30;30.90;;;;;;;9.35;69.10;98745.63;108452;1271;25097;-72
2022/05/04 04:16:07;;;;;;;52.90;33.10;;;;;;;9.41;68.50;98749.95;108469;1271;22560;-73
2022/05/04 04:18:34;;;;;;;59.40;38.20;;;;;;;9.47;68.68;98753.30;108427;1271;22543;-71
2022/05/04 04:23:46;;;;;;;42.50;24.70;;;;;;;9.64;68.77;98755.91;108486;1271;22546;-75
2022/05/04 04:26:13;;;;;;;40.10;25.90;;;;;;;9.74;69.22;98756.33;108476;1271;24124;-71
2022/05/04 04:28:40;;;;;;;39.50;22.10;;;;;;;9.88;69.04;98758.29;108424;1271;22541;-72
2022/05/04 04:31:11;;;;;;;37.70;23.80;;;;;;;10.05;68.54;98757.94;108419;1271;22541;-72
2022/05/04 04:33:38;;;;;;;40.90;26.50;;;;;;;10.22;68.33;98760.73;108441;1271;22533;-75
2022/05/04 04:36:06;;;;;;;32.90;23.30;;;;;;;10.39;67.88;98764.05;108428;1271;22541;-73
2022/05/04 04:38:33;;;;;;;37.70;24.70;;;;;;;10.57;67.12;98771.65;108518;1271;22594;-73
2022/05/04 04:41:00;;;;;;;35.40;21.40;;;;;;;10.74;67.27;98774.35;108433;1270;24278;-72
2022/05/04 04:43:27;;;;;;;37.70;21.30;;;;;;;10.91;67.00;98775.38;108472;1271;22550;-72
2022/05/04 04:45:54;;;;;;;35.90;20.20;;;;;;;11.01;66.73;98778.39;108447;1271;22542;-72
2022/05/04 04:48:21;;;;;;;35.70;19.70;;;;;;;11.10;66.35;98775.36;108434;1270;24223;-77
2022/05/04 04:50:48;;;;;;;26.50;18.00;;;;;;;11.22;66.26;98780.11;108448;1271;22571;-72
2022/05/04 04:53:17;;;;;;;23.30;16.40;;;;;;;11.38;65.65;98782.58;108438;1271;22540;-73
2022/05/04 04:55:45;;;;;;;24.40;16.80;;;;;;;11.62;65.40;98784.80;108506;1271;25110;-74
2022/05/04 04:58:14;;;;;;;22.40;15.80;;;;;;;11.87;65.27;98782.09;108444;1271;22558;-75
2022/05/04 05:00:41;;;;;;;26.00;15.90;;;;;;;12.09;64.95;98786.02;108441;1271;23951;-74
2022/05/04 05:03:09;;;;;;;29.70;17.10;;;;;;;12.31;64.08;98785.48;108413;1271;25328;-72
2022/05/04 05:05:40;;;;;;;25.90;18.10;;;;;;;12.54;63.93;98783.92;108549;1271;25262;-74
2022/05/04 05:08:08;;;;;;;24.60;16.50;;;;;;;12.69;62.79;98785.94;108545;1271;22516;-72
2022/05/04 05:10:36;;;;;;;29.00;19.20;;;;;;;12.82;62.34;98786.42;108444;1271;22557;-76
2022/05/04 05:13:03;;;;;;;22.90;16.30;;;;;;;12.95;61.25;98786.91;108458;1271;23068;-72
2022/05/04 05:18:21;;;;;;;25.00;13.70;;;;;;;13.27;59.97;98786.69;108641;1271;22560;-73
2022/05/04 05:20:49;;;;;;;18.50;12.50;;;;;;;13.41;59.70;98787.39;108540;1271;22566;-78
2022/05/04 05:23:16;;;;;;;22.80;12.60;;;;;;;13.51;59.18;98791.34;108536;1271;22621;-74
2022/05/04 05:25:43;;;;;;;26.50;12.70;;;;;;;13.61;58.95;98792.52;108575;1271;22553;-77
2022/05/04 05:28:10;;;;;;;20.70;12.40;;;;;;;13.69;58.33;98796.43;108500;1271;22550;-74
2022/05/04 05:30:37;;;;;;;21.90;12.20;;;;;;;13.74;57.78;98796.80;108519;1271;22592;-78
2022/05/04 05:33:04;;;;;;;16.00;12.30;;;;;;;13.82;57.58;98795.44;108520;1271;22540;-73
2022/05/04 05:35:31;;;;;;;20.50;13.20;;;;;;;13.88;56.70;98797.09;108529;1271;22524;-88
2022/05/04 05:37:58;;;;;;;24.90;13.00;;;;;;;13.92;56.28;98795.43;108531;1271;22578;-86
2022/05/04 05:40:26;;;;;;;21.00;12.60;;;;;;;13.98;56.02;98797.77;108572;1271;25262;-81
2022/05/04 05:42:53;;;;;;;24.90;13.40;;;;;;;14.02;55.21;98799.05;108582;1271;22539;-72
2022/05/04 05:45:20;;;;;;;28.70;12.70;;;;;;;14.08;55.50;98796.41;108554;1271;22583;-73
2022/05/04 05:47:47;;;;;;;21.90;12.60;;;;;;;14.14;55.01;98793.52;108546;1271;22530;-73
2022/05/04 05:50:14;;;;;;;22.80;13.30;;;;;;;14.18;54.64;98794.09;108537;1271;24387;-75
2022/05/04 05:52:41;;;;;;;24.50;14.60;;;;;;;14.23;53.87;98792.14;108596;1271;22533;-74
2022/05/04 05:55:09;;;;;;;26.80;13.40;;;;;;;14.25;53.92;98788.59;108411;1271;22530;-74
2022/05/04 05:57:36;;;;;;;25.50;13.50;;;;;;;14.29;53.10;98791.48;108387;1271;22607;-76
2022/05/04 06:00:05;;;;;;;24.80;13.80;;;;;;;14.30;53.26;98789.46;108369;1271;22525;-76
2022/05/04 06:02:33;;;;;;;30.00;14.10;;;;;;;14.33;53.12;98790.31;108386;1271;22580;-72
2022/05/04 06:05:00;;;;;;;34.70;13.90;;;;;;;14.38;53.33;98787.16;108369;1271;22561;-72
2022/05/04 06:07:27;;;;;;;27.40;12.80;;;;;;;14.47;53.38;98788.02;108395;1271;22550;-73
2022/05/04 06:09:54;;;;;;;25.80;12.50;;;;;;;14.57;52.68;98792.11;108353;1271;22536;-71
2022/05/04 06:12:21;;;;;;;24.70;12.30;;;;;;;14.60;52.59;98791.86;108323;1271;22577;-70
2022/05/04 06:14:48;;;;;;;27.20;12.30;;;;;;;14.69;52.75;98792.08;108337;1271;23031;-80
2022/05/04 06:17:15;;;;;;;20.30;12.30;;;;;;;14.81;52.32;98793.02;108359;1271;22577;-74
2022/05/04 06:19:42;;;;;;;20.00;11.70;;;;;;;14.91;52.09;98793.45;108349;1271;26632;-71
2022/05/04 06:22:09;;;;;;;26.60;13.90;;;;;;;15.01;51.85;98793.66;108280;1274;22530;-71
2022/05/04 06:24:36;;;;;;;21.40;12.10;;;;;;;15.16;51.31;98792.66;108342;1271;24415;-71
2022/05/04 06:27:03;;;;;;;24.50;12.60;;;;;;;15.25;50.83;98793.75;108347;1271;22550;-75
2022/05/04 06:35:07;;;;;;;17.50;10.40;;;;;;;15.63;48.43;98792.58;108367;1271;22553;-71
2022/05/04 06:37:34;;;;;;;16.30;10.80;;;;;;;15.72;48.58;98793.41;108340;1271;26491;-70
2022/05/04 06:40:01;;;;;;;18.20;9.80;;;;;;;15.84;47.78;98791.19;108316;1271;23412;-70
2022/05/04 06:42:28;;;;;;;13.50;9.20;;;;;;;15.95;47.31;98788.84;108330;1271;22534;-72
2022/05/04 06:44:55;;;;;;;11.60;7.80;;;;;;;16.06;47.55;98788.10;108341;1271;22532;-72
2022/05/04 06:47:22;;;;;;;18.20;9.30;;;;;;;16.17;46.98;98788.58;108394;1271;22501;-69
2022/05/04 06:49:49;;;;;;;13.90;9.80;;;;;;;16.25;46.70;98788.23;108393;1271;25197;-70
2022/05/04 06:52:16;;;;;;;16.80;9.70;;;;;;;16.35;46.40;98789.14;108389;1271;22548;-74
2022/05/04 06:54:43;;;;;;;21.50;11.00;;;;;;;16.45;46.74;98792.33;108382;1271;24293;-72
2022/05/04 06:57:10;;;;;;;17.30;11.00;;;;;;;16.56;46.77;98790.98;108360;1271;22540;-69
2022/05/04 06:59:37;;;;;;;18.40;10.20;;;;;;;16.67;45.99;98791.12;108336;1271;22606;-72
2022/05/04 07:02:04;;;;;;;15.80;10.00;;;;;;;16.78;45.58;98791.33;108330;1271;22537;-72
2022/05/04 07:04:31;;;;;;;13.90;9.60;;;;;;;16.79;45.09;98792.99;108311;1271;22564;-70
2022/05/04 07:06:58;;;;;;;15.50;10.30;;;;;;;16.86;45.18;98793.84;108318;1271;22616;-70
2022/05/04 07:09:25;;;;;;;13.90;9.10;;;;;;;16.96;45.03;98793.70;108325;1271;22531;-74
2022/05/04 07:11:53;;;;;;;13.60;9.00;;;;;;;17.06;44.79;98801.19;108346;1271;22558;-73
2022/05/04 07:14:19;;;;;;;18.20;9.10;;;;;;;17.05;43.51;98801.13;108315;1271;22621;-74
2022/05/04 07:16:47;;;;;;;13.30;8.30;;;;;;;16.99;43.57;98800.38;108335;1271;22525;-70
2022/05/04 07:19:15;;;;;;;12.00;8.30;;;;;;;17.06;44.09;98798.91;108347;1271;22722;-77
2022/05/04 07:21:43;;;;;;;13.20;8.40;;;;;;;17.17;43.53;98798.03;108351;1271;23106;-71
2022/05/04 07:24:11;;;;;;;19.70;8.90;;;;;;;17.28;43.55;98799.23;108584;1271;22553;-77
2022/05/04 07:26:40;;;;;;;13.80;9.80;;;;;;;17.34;43.39;98800.05;108341;1271;22542;-71
2022/05/04 07:29:08;;;;;;;13.90;9.80;;;;;;;17.43;43.10;98801.53;108342;1271;22551;-72
2022/05/04 07:31:35;;;;;;;16.20;9.50;;;;;;;17.43;42.43;98801.51;108539;1271;22754;-77
2022/05/04 07:34:02;;;;;;;14.30;8.90;;;;;;;17.45;42.03;98799.58;108463;1271;22556;-73
2022/05/04 07:36:29;;;;;;;13.60;8.50;;;;;;;17.44;41.85;98802.16;108471;1271;25342;-73
2022/05/04 07:38:57;;;;;;;15.70;8.70;;;;;;;17.44;41.66;98801.29;108356;1271;22653;-76
2022/05/04 07:44:09;;;;;;;17.60;8.30;;;;;;;17.54;42.25;98803.31;108374;1271;22570;-79
2022/05/04 07:46:36;;;;;;;11.70;7.90;;;;;;;17.63;41.65;98804.80;108370;1271;22584;-71
2022/05/04 07:49:04;;;;;;;12.20;7.50;;;;;;;17.72;41.77;98805.91;108360;1271;22541;-73
2022/05/04 07:51:31;;;;;;;12.90;8.10;;;;;;;17.83;41.73;98802.05;108371;1270;22590;-73
2022/05/04 07:53:58;;;;;;;14.60;8.20;;;;;;;17.92;41.41;98804.80;108336;1271;22593;-72
2022/05/04 07:56:25;;;;;;;15.30;7.40;;;;;;;18.00;41.33;98806.18;108339;1271;22573;-71
2022/05/04 07:58:52;;;;;;;11.30;7.30;;;;;;;18.08;40.76;98807.86;108354;1271;22542;-81
2022/05/04 08:04:17;;;;;;;11.60;8.40;;;;;;;18.05;40.00;98811.91;108342;1271;22545;-71
2022/05/04 08:06:45;;;;;;;10.80;7.50;;;;;;;18.02;39.92;98810.21;108332;1271;22541;-83
2022/05/04 08:09:13;;;;;;;13.00;7.90;;;;;;;18.05;40.01;98810.63;108384;1271;22560;-72
2022/05/04 08:11:41;;;;;;;10.80;7.70;;;;;;;18.11;39.43;98808.64;108353;1271;22658;-76
2022/05/04 08:14:08;;;;;;;8.80;6.80;;;;;;;18.17;39.82;98812.81;108335;1271;24730;-72
2022/05/04 08:16:36;;;;;;;14.60;8.20;;;;;;;18.20;38.97;98813.27;108326;1271;22567;-72
2022/05/04 08:19:03;;;;;;;11.00;7.30;;;;;;;18.13;38.95;98814.78;108307;1271;22527;-74
2022/05/04 08:21:31;;;;;;;9.70;7.80;;;;;;;18.22;39.24;98818.73;108360;1271;22532;-73
2022/05/04 08:23:59;;;;;;;12.80;7.30;;;;;;;18.31;39.45;98814.52;108436;1271;22612;-74
2022/05/04 08:26:26;;;;;;;9.60;6.80;;;;;;;18.40;39.61;98818.57;108392;1271;24217;-70
2022/05/04 08:28:53;;;;;;;12.10;7.70;;;;;;;18.53;39.53;98817.02;108373;1271;22586;-71
2022/05/04 08:31:21;;;;;;;9.70;6.40;;;;;;;18.63;39.13;98813.48;108380;1271;22548;-73
2022/05/04 08:33:50;;;;;;;11.10;7.30;;;;;;;18.72;38.66;98815.43;108381;1271;22537;-73
2022/05/04 08:36:17;;;;;;;10.10;6.90;;;;;;;18.78;38.65;98812.41;108427;1271;24293;-71
2022/05/04 08:38:44;;;;;;;10.70;7.50;;;;;;;18.80;38.56;98813.77;108376;1271;22598;-70
2022/05/04 08:41:11;;;;;;;12.50;8.40;;;;;;;18.84;38.39;98813.17;108368;1271;22577;-72
2022/05/04 08:43:41;;;;;;;10.30;7.60;;;;;;;18.89;38.54;98811.52;108343;1271;22554;-70
2022/05/04 08:46:13;;;;;;;11.80;7.10;;;;;;;19.01;38.67;98813.67;108444;1271;24351;-86
2022/05/04 08:48:40;;;;;;;12.20;8.50;;;;;;;19.12;37.78;98811.88;108513;1270;23495;-74
2022/05/04 08:51:08;;;;;;;15.10;8.10;;;;;;;19.11;37.88;98811.77;108542;1271;22525;-74
2022/05/04 08:53:36;;;;;;;9.70;7.20;;;;;;;19.14;38.13;98814.11;108496;1271;23982;-74
2022/05/04 08:56:05;;;;;;;20.50;8.10;;;;;;;19.26;38.06;98818.66;108563;1271;22525;-71
2022/05/04 08:58:37;;;;;;;11.20;7.80;;;;;;;19.36;37.83;98817.05;108530;1271;22541;-73
2022/05/04 09:01:05;;;;;;;11.30;7.40;;;;;;;19.49;37.74;98814.77;108554;1271;23503;-71
2022/05/04 09:03:32;;;;;;;13.50;8.00;;;;;;;19.65;37.74;98820.73;108527;1271;22575;-73
2022/05/04 09:06:00;;;;;;;11.10;7.90;;;;;;;19.81;37.27;98816.00;108551;1271;22590;-73
2022/05/04 09:08:27;;;;;;;9.70;7.90;;;;;;;19.95;36.57;98818.25;108540;1271;22548;-73
2022/05/04 09:10:54;;;;;;;10.20;7.70;;;;;;;19.96;36.01;98817.14;108560;1271;22544;-79
2022/05/04 09:13:21;;;;;;;11.20;7.40;;;;;;;19.98;36.39;98813.61;108548;1271;22539;-73
2022/05/04 09:15:51;;;;;;;11.30;7.80;;;;;;;20.08;35.85;98816.27;108561;1271;22561;-73
2022/05/04 09:18:19;;;;;;;9.90;7.60;;;;;;;20.07;35.74;98813.34;108558;1271;22566;-74
2022/05/04 09:23:17;;;;;;;15.60;8.20;;;;;;;20.00;35.34;98813.39;108543;1271;22557;-74
2022/05/04 09:25:47;;;;;;;11.10;8.20;;;;;;;20.04;35.45;98815.23;108520;1271;22562;-81
2022/05/04 09:28:15;;;;;;;10.30;7.60;;;;;;;20.18;35.84;98812.69;108513;1271;22548;-82
2022/05/04 09:30:45;;;;;;;10.30;7.80;;;;;;;20.32;35.69;98809.00;108515;1271;23942;-85
2022/05/04 09:33:16;;;;;;;12.30;7.40;;;;;;;20.37;35.15;98806.58;108542;1271;22538;-71
2022/05/04 09:35:44;;;;;;;9.50;7.00;;;;;;;20.39;35.29;98800.91;108592;1271;22542;-75
2022/05/04 09:46:45;;;;;;;13.20;7.80;;;;;;;20.64;35.29;98795.10;108509;1271;24215;-78
2022/05/04 09:49:14;;;;;;;11.70;8.20;;;;;;;20.87;34.70;98796.23;108546;1271;22540;-71
2022/05/04 09:51:56;;;;;;;10.80;7.10;;;;;;;20.93;34.36;98797.20;108533;1271;22600;-76
2022/05/04 09:54:26;;;;;;;13.50;8.00;;;;;;;20.95;34.02;98794.08;108525;1270;22563;-72
2022/05/04 09:56:56;;;;;;;10.40;8.00;;;;;;;20.95;32.94;98793.42;108563;1271;22537;-78
2022/05/04 09:59:27;;;;;;;11.10;8.20;;;;;;;20.86;33.55;98796.14;108613;1270;22630;-75
2022/05/04 10:01:54;;;;;;;9.40;7.20;;;;;;;20.88;33.53;98791.20;108551;1271;24820;-77
2022/05/04 10:04:25;;;;;;;10.10;7.40;;;;;;;21.02;33.74;98787.56;108551;1271;22535;-76
2022/05/04 10:06:54;;;;;;;14.40;6.90;;;;;;;21.22;33.18;98781.92;108578;1271;22570;-87
2022/05/04 10:09:22;;;;;;;10.60;6.90;;;;;;;21.35;32.89;98784.04;108532;1270;22545;-76
2022/05/04 10:11:58;;;;;;;10.00;7.50;;;;;;;21.51;32.67;98783.91;108531;1271;22514;-73
2022/05/04 10:14:27;;;;;;;10.00;6.50;;;;;;;21.60;31.93;98778.55;108545;1271;24319;-76
2022/05/04 10:17:12;;;;;;;10.70;6.80;;;;;;;21.81;32.50;98773.33;108540;1271;24299;-78
2022/05/04 10:19:54;;;;;;;8.40;5.80;;;;;;;21.99;32.68;98778.12;108559;1271;22534;-76
2022/05/04 10:22:27;;;;;;;9.00;6.80;;;;;;;22.20;32.59;98774.77;108501;1271;22662;-86
2022/05/04 10:24:58;;;;;;;10.90;7.40;;;;;;;22.29;32.34;98778.13;108515;1271;25512;-75
2022/05/04 10:27:28;;;;;;;11.70;7.20;;;;;;;22.41;32.06;98777.19;108313;1271;22550;-72
2022/05/04 10:32:51;;;;;;;13.80;7.50;;;;;;;22.55;31.69;98777.89;108385;1271;23206;-69
2022/05/04 10:35:27;;;;;;;14.50;7.10;;;;;;;22.53;31.31;98779.52;108368;1271;22668;-70
2022/05/04 10:38:00;;;;;;;13.40;7.30;;;;;;;22.48;31.20;98773.51;108367;1271;22554;-69
2022/05/04 10:40:42;;;;;;;11.20;6.90;;;;;;;22.33;30.92;98776.09;108352;1269;22531;-70
2022/05/04 10:43:13;;;;;;;;;;;;;;;22.19;31.07;98772.58;108357;1271;22677;-70
2022/05/04 10:45:43;;;;;;;12.00;7.00;;;;;;;22.00;31.15;98771.59;108319;1271;22538;-71
2022/05/04 10:48:09;;;;;;;8.90;6.60;;;;;;;21.92;31.36;98773.68;108341;1271;22569;-70
2022/05/04 10:51:10;;;;;;;13.30;6.90;;;;;;;21.97;31.11;98769.48;108287;1271;23163;-69
2022/05/04 10:54:08;;;;;;;12.00;6.40;;;;;;;21.88;30.99;98774.39;108278;1271;22620;-70
2022/05/04 10:56:49;;;;;;;12.80;7.20;;;;;;;21.99;31.44;98766.44;108315;1271;22594;-69
2022/05/04 10:59:34;;;;;;;9.70;7.20;;;;;;;21.92;30.99;98764.88;108331;1271;22623;-70
2022/05/04 11:02:09;;;;;;;12.20;7.50;;;;;;;21.96;31.21;98765.87;108324;1271;24123;-70
2022/05/04 11:04:36;;;;;;;12.00;7.20;;;;;;;22.07;31.03;98759.19;108659;1271;22556;-70
2022/05/04 11:07:08;;;;;;;10.40;6.60;;;;;;;22.10;31.01;98759.35;108371;1271;22548;-69
2022/05/04 11:09:47;;;;;;;11.60;8.00;;;;;;;22.36;30.81;98759.30;108548;1271;23074;-70
2022/05/04 11:12:13;;;;;;;11.70;7.80;;;;;;;22.53;30.73;98759.68;108348;1271;22544;-70
2022/05/04 11:14:41;;;;;;;11.90;7.00;;;;;;;22.61;30.47;98761.79;108335;1271;22563;-70
2022/05/04 11:17:15;;;;;;;12.00;6.90;;;;;;;22.47;30.50;98765.67;108342;1270;23052;-69
2022/05/04 11:19:45;;;;;;;11.90;7.30;;;;;;;22.53;31.05;98766.61;108428;1271;22557;-71
2022/05/04 11:22:13;;;;;;;8.90;7.00;;;;;;;22.73;30.99;98768.19;108350;1271;22540;-74
2022/05/04 11:24:41;;;;;;;12.20;7.00;;;;;;;22.86;30.75;98766.09;108403;1271;22525;-73
2022/05/04 11:27:08;;;;;;;14.00;8.60;;;;;;;23.03;30.51;98763.08;108398;1271;26396;-70
2022/05/04 11:29:35;;;;;;;9.90;7.10;;;;;;;23.11;29.67;98758.85;108395;1271;25400;-81
2022/05/04 11:32:05;;;;;;;17.90;11.70;;;;;;;23.12;29.97;98760.52;108364;1271;22596;-70
2022/05/04 11:34:38;;;;;;;11.90;8.40;;;;;;;23.24;30.07;98759.34;108377;1271;22532;-76
2022/05/04 11:37:08;;;;;;;9.00;7.40;;;;;;;23.33;29.88;98760.79;108428;1271;22546;-71
2022/05/04 11:39:37;;;;;;;10.70;7.40;;;;;;;23.29;29.81;98759.67;108417;1271;22543;-70
2022/05/04 11:42:07;;;;;;;15.70;8.10;;;;;;;23.30;29.77;98757.47;108386;1269;22536;-74
2022/05/04 11:44:36;;;;;;;12.70;8.90;;;;;;;23.29;29.81;98758.77;108373;1270;22867;-73
2022/05/04 11:47:03;;;;;;;12.60;8.30;;;;;;;23.29;29.65;98757.24;108389;1271;22570;-78
2022/05/04 11:49:34;;;;;;;13.50;8.50;;;;;;;23.29;29.46;98755.45;108355;1271;25340;-70
2022/05/04 11:52:04;;;;;;;11.40;8.20;;;;;;;23.34;29.69;98750.45;108394;1271;22612;-70
2022/05/04 11:54:31;;;;;;;14.50;8.50;;;;;;;23.36;29.62;98749.59;108421;1271;23350;-70
2022/05/04 11:56:58;;;;;;;18.50;8.10;;;;;;;23.44;29.68;98746.16;108431;1271;22554;-73
2022/05/04 11:59:31;;;;;;;12.70;8.00;;;;;;;23.55;29.56;98743.85;108413;1271;22539;-72
2022/05/04 12:01:59;;;;;;;;;;;;;;;23.76;29.66;98742.64;108406;1271;22739;-71